createdAt,value
2018-08-23T00:01:31.259Z,20.20
2018-08-23T00:06:34.958Z,20.20
2018-08-23T00:11:40.623Z,20.10
2018-08-23T00:16:44.989Z,20.10
2018-08-23T00:21:49.468Z,19.90
2018-08-23T00:26:54.086Z,19.80
2018-08-23T00:32:04.893Z,19.70
2018-08-23T00:37:08.792Z,19.70
2018-08-23T00:42:12.798Z,19.70
2018-08-23T00:47:16.104Z,19.70
2018-08-23T00:52:51.563Z,19.60
2018-08-23T00:57:54.834Z,19.70
2018-08-23T01:02:58.681Z,19.60
2018-08-23T01:08:02.204Z,19.60
2018-08-23T01:13:05.530Z,19.50
2018-08-23T01:18:15.206Z,19.50
2018-08-23T01:23:18.501Z,19.40
2018-08-23T01:28:21.982Z,19.40
2018-08-23T01:33:25.287Z,19.20
2018-08-23T01:38:28.604Z,19.20
2018-08-23T01:43:31.957Z,19.20
2018-08-23T01:48:35.210Z,19.10
2018-08-23T01:53:39.056Z,18.90
2018-08-23T01:58:42.736Z,18.80
2018-08-23T02:03:46.226Z,18.70
2018-08-23T02:08:49.519Z,18.70
2018-08-23T02:13:52.820Z,18.70
2018-08-23T02:18:56.175Z,18.50
2018-08-23T02:23:59.435Z,18.40
2018-08-23T02:29:02.808Z,18.30
2018-08-23T02:34:06.118Z,18.30
2018-08-23T02:39:09.847Z,18.30
2018-08-23T02:44:13.091Z,18.20
2018-08-23T02:49:16.423Z,18.20
2018-08-23T02:54:19.769Z,18.20
2018-08-23T02:59:23.294Z,18.20
2018-08-23T03:04:27.479Z,18.20
2018-08-23T03:09:32.862Z,18.10
2018-08-23T03:14:36.312Z,18.00
2018-08-23T03:19:49.750Z,18.00
2018-08-23T03:24:53.072Z,18.00
2018-08-23T03:29:56.374Z,17.90
2018-08-23T03:35:00.290Z,17.90
2018-08-23T03:40:03.709Z,17.90
2018-08-23T03:45:12.232Z,17.90
2018-08-23T03:50:15.530Z,17.80
2018-08-23T03:55:20.082Z,17.80
2018-08-23T04:00:28.757Z,17.70
2018-08-23T04:05:32.059Z,17.60
2018-08-23T04:10:35.340Z,17.60
2018-08-23T04:15:38.592Z,17.60
2018-08-23T04:20:50.676Z,17.50
2018-08-23T04:25:54.185Z,17.50
2018-08-23T04:30:57.471Z,17.50
2018-08-23T04:36:00.807Z,17.50
2018-08-23T04:41:07.654Z,17.50
2018-08-23T04:46:20.170Z,17.50
2018-08-23T04:51:23.438Z,17.40
2018-08-23T04:56:26.728Z,17.40
2018-08-23T05:01:29.990Z,17.30
2018-08-23T05:06:33.367Z,17.40
2018-08-23T05:11:36.995Z,17.50
2018-08-23T05:16:40.283Z,17.50
2018-08-23T05:21:43.660Z,17.60
2018-08-23T05:26:46.946Z,17.70
2018-08-23T05:31:50.328Z,17.80
2018-08-23T05:36:53.651Z,17.90
2018-08-23T05:41:56.916Z,18.00
2018-08-23T05:47:00.525Z,18.10
2018-08-23T05:52:03.832Z,18.20
2018-08-23T05:57:07.249Z,18.30
2018-08-23T06:02:10.489Z,18.50
2018-08-23T06:07:13.767Z,18.60
2018-08-23T06:12:17.272Z,18.80
2018-08-23T06:17:20.540Z,19.00
2018-08-23T06:22:23.816Z,19.10
2018-08-23T06:27:27.256Z,19.30
2018-08-23T06:32:30.476Z,19.50
2018-08-23T06:37:34.160Z,19.80
2018-08-23T06:42:45.898Z,20.00
2018-08-23T06:47:53.747Z,20.20
2018-08-23T06:52:57.084Z,20.40
2018-08-23T06:58:01.469Z,20.70
2018-08-23T07:03:04.980Z,20.80
2018-08-23T07:08:08.230Z,21.00
2018-08-23T07:13:11.499Z,21.20
2018-08-23T07:18:20.307Z,21.40
2018-08-23T07:23:29.483Z,21.60
2018-08-23T07:28:34.028Z,21.60
2018-08-23T07:33:37.479Z,21.70
2018-08-23T07:38:40.751Z,21.70
2018-08-23T07:43:44.114Z,21.80
2018-08-23T07:48:47.432Z,21.90
2018-08-23T07:53:50.678Z,21.80
2018-08-23T07:58:54.944Z,21.80
2018-08-23T08:03:59.004Z,21.80
2018-08-23T08:09:02.304Z,21.90
2018-08-23T08:14:13.355Z,22.10
2018-08-23T08:19:16.705Z,22.00
2018-08-23T08:24:19.975Z,22.20
2018-08-23T08:29:28.745Z,22.40
2018-08-23T08:34:32.007Z,22.60
2018-08-23T08:39:35.296Z,22.80
2018-08-23T08:44:38.567Z,22.70
2018-08-23T08:49:41.975Z,22.80
2018-08-23T08:54:45.259Z,22.80
2018-08-23T08:59:48.496Z,22.80
2018-08-23T09:04:51.899Z,22.90
2018-08-23T09:09:55.271Z,23.10
2018-08-23T09:14:58.734Z,23.10
2018-08-23T09:20:11.375Z,23.20
2018-08-23T09:25:17.350Z,23.20
2018-08-23T09:30:25.772Z,23.30
2018-08-23T09:35:30.895Z,23.40
2018-08-23T09:40:34.203Z,23.50
2018-08-23T09:45:38.212Z,23.60
2018-08-23T09:50:41.542Z,23.70
2018-08-23T09:55:46.866Z,23.60
2018-08-23T10:00:55.393Z,23.80
2018-08-23T10:08:08.815Z,23.70
2018-08-23T10:13:17.367Z,23.60
2018-08-23T10:18:27.091Z,23.80
2018-08-23T10:23:30.359Z,23.80
2018-08-23T10:28:38.907Z,24.30
2018-08-23T10:33:42.156Z,24.20
2018-08-23T10:38:45.421Z,24.50
2018-08-23T10:43:49.095Z,24.20
2018-08-23T10:48:52.353Z,24.30
2018-08-23T10:53:55.649Z,24.10
2018-08-23T10:58:59.003Z,24.60
2018-08-23T11:04:07.310Z,24.50
2018-08-23T11:09:15.995Z,24.60
2018-08-23T11:14:24.556Z,24.70
2018-08-23T11:19:33.062Z,24.90
2018-08-23T11:24:36.308Z,25.30
2018-08-23T11:29:39.694Z,25.60
2018-08-23T11:34:42.887Z,25.60
2018-08-23T11:39:46.176Z,25.60
2018-08-23T11:44:49.460Z,25.90
2018-08-23T11:49:52.711Z,26.00
2018-08-23T11:54:55.994Z,25.80
2018-08-23T11:59:59.248Z,25.50
2018-08-23T12:05:02.528Z,25.10
2018-08-23T12:10:05.895Z,24.70
2018-08-23T12:15:09.239Z,23.70
2018-08-23T12:20:12.526Z,23.10
2018-08-23T12:25:15.823Z,22.70
2018-08-23T12:30:19.114Z,22.40
2018-08-23T12:35:22.495Z,22.40
2018-08-23T12:40:31.355Z,22.40
2018-08-23T12:45:38.600Z,21.70
2018-08-23T12:50:42.934Z,21.40
2018-08-23T12:55:46.207Z,21.40
2018-08-23T13:00:49.460Z,21.50
2018-08-23T13:05:52.808Z,21.60
2018-08-23T13:10:56.160Z,21.80
2018-08-23T13:15:59.457Z,22.20
2018-08-23T13:21:02.804Z,22.80
2018-08-23T13:26:06.089Z,22.90
2018-08-23T13:31:09.343Z,23.20
2018-08-23T13:36:12.670Z,23.80
2018-08-23T13:41:15.911Z,24.50
2018-08-23T13:46:19.195Z,24.70
2018-08-23T13:51:22.477Z,24.90
2018-08-23T13:56:26.229Z,25.40
2018-08-23T14:01:29.911Z,25.60
2018-08-23T14:06:33.291Z,25.40
2018-08-23T14:11:36.454Z,26.10
2018-08-23T14:16:39.763Z,26.10
2018-08-23T14:21:43.042Z,26.30
2018-08-23T14:26:46.292Z,26.30
2018-08-23T14:31:49.650Z,26.70
2018-08-23T14:36:52.924Z,27.10
2018-08-23T14:41:56.199Z,27.20
2018-08-23T14:47:04.764Z,27.30
2018-08-23T14:52:08.295Z,26.60
2018-08-23T14:57:47.363Z,27.00
2018-08-23T15:07:54.124Z,27.00
2018-08-23T15:12:57.371Z,26.70
2018-08-23T15:18:00.689Z,26.00
2018-08-23T15:23:03.946Z,25.70
2018-08-23T15:28:07.668Z,25.50
2018-08-23T15:33:11.045Z,25.50
2018-08-23T15:38:14.234Z,25.30
2018-08-23T15:43:18.986Z,25.30
2018-08-23T15:48:22.267Z,25.30
2018-08-23T15:53:25.535Z,25.40
2018-08-23T15:58:28.835Z,25.30
2018-08-23T16:03:32.168Z,25.20
2018-08-23T16:08:40.857Z,25.10
2018-08-23T16:13:44.203Z,25.20
2018-08-23T16:18:52.863Z,25.20
2018-08-23T16:23:56.526Z,25.20
2018-08-23T16:28:59.899Z,25.20
2018-08-23T16:34:03.192Z,25.20
2018-08-23T16:39:07.536Z,25.30
2018-08-23T16:49:13.920Z,25.20
2018-08-23T16:54:17.229Z,25.20
2018-08-23T16:59:20.494Z,25.30
2018-08-23T17:04:28.098Z,25.30
2018-08-23T17:09:31.563Z,25.30
2018-08-23T17:14:34.863Z,25.30
2018-08-23T17:19:38.156Z,25.30
2018-08-23T17:24:41.541Z,25.30
2018-08-23T17:29:44.778Z,25.30
2018-08-23T17:34:48.058Z,25.30
2018-08-23T17:39:51.375Z,25.10
2018-08-23T17:44:54.720Z,24.90
2018-08-23T17:49:57.970Z,25.00
2018-08-23T17:55:01.385Z,24.90
2018-08-23T18:00:04.626Z,24.90
2018-08-23T18:05:07.974Z,24.80
2018-08-23T18:10:11.249Z,24.70
2018-08-23T18:15:14.531Z,24.70
2018-08-23T18:20:17.941Z,24.60
2018-08-23T18:25:21.305Z,24.50
2018-08-23T18:30:24.574Z,24.20
2018-08-23T18:35:27.906Z,23.90
2018-08-23T18:40:31.143Z,23.80
2018-08-23T18:45:34.392Z,23.70
2018-08-23T18:50:38.671Z,23.50
2018-08-23T18:55:41.942Z,23.30
2018-08-23T19:00:45.220Z,23.30
2018-08-23T19:05:48.539Z,23.20
2018-08-23T19:10:51.826Z,22.90
2018-08-23T19:16:00.464Z,22.70
2018-08-23T19:21:03.874Z,22.50
2018-08-23T19:26:07.221Z,22.50
2018-08-23T19:31:10.493Z,22.30
2018-08-23T19:36:13.904Z,22.20
2018-08-23T19:41:17.289Z,22.00
2018-08-23T19:46:25.875Z,21.90
2018-08-23T19:51:29.139Z,21.70
2018-08-23T19:56:32.478Z,21.60
2018-08-23T20:01:35.995Z,21.70
2018-08-23T20:06:39.346Z,21.50
2018-08-23T20:11:42.867Z,21.40
2018-08-23T20:16:46.135Z,21.40
2018-08-23T20:21:49.505Z,21.30
2018-08-23T20:26:52.916Z,21.20
2018-08-23T20:31:56.271Z,21.20
2018-08-23T20:36:59.895Z,21.20
2018-08-23T20:42:03.509Z,21.20
2018-08-23T20:47:06.944Z,21.10
2018-08-23T20:52:10.614Z,21.20
2018-08-23T20:57:14.224Z,20.80
2018-08-23T21:02:17.507Z,20.70
2018-08-23T21:07:20.843Z,20.50
2018-08-23T21:12:24.450Z,20.40
2018-08-23T21:17:27.724Z,20.40
2018-08-23T21:22:31.031Z,20.30
2018-08-23T21:27:34.543Z,20.40
2018-08-23T21:32:38.055Z,20.40
2018-08-23T21:37:41.335Z,20.40
2018-08-23T21:42:45.688Z,20.50
2018-08-23T21:47:48.940Z,20.50
2018-08-23T21:52:52.214Z,20.50
2018-08-23T21:57:55.514Z,20.50
2018-08-23T22:02:58.777Z,20.30
2018-08-23T22:08:02.159Z,20.30
2018-08-23T22:13:05.522Z,20.20
2018-08-23T22:18:08.856Z,20.20
2018-08-23T22:23:12.438Z,20.20
2018-08-23T22:28:15.751Z,20.10
2018-08-23T22:33:19.004Z,20.10
2018-08-23T22:38:22.284Z,20.10
2018-08-23T22:43:25.543Z,20.10
2018-08-23T22:48:28.882Z,20.00
2018-08-23T22:53:32.158Z,20.00
2018-08-23T22:58:35.483Z,19.90
2018-08-23T23:03:44.069Z,19.90
2018-08-23T23:08:47.378Z,19.80
2018-08-23T23:13:50.700Z,19.80
2018-08-23T23:18:53.968Z,19.70
2018-08-23T23:23:57.247Z,19.70
2018-08-23T23:29:00.592Z,19.60
2018-08-23T23:34:03.862Z,19.60
2018-08-23T23:39:07.719Z,19.60
2018-08-23T23:44:10.979Z,19.60
2018-08-23T23:49:14.251Z,19.50
2018-08-23T23:54:17.516Z,19.50
2018-08-23T23:59:20.783Z,19.50
